createdAt,value
2023-03-12T00:01:22.485Z,9.70
2023-03-12T00:03:52.600Z,13.40
2023-03-12T00:06:22.372Z,17.30
2023-03-12T00:08:51.759Z,10.80
2023-03-12T00:11:22.244Z,12.30
2023-03-12T00:13:53.284Z,11.60
2023-03-12T00:16:25.849Z,13.70
2023-03-12T00:18:56.536Z,11.50
2023-03-12T00:21:26.700Z,13.40
2023-03-12T00:23:55.773Z,9.80
2023-03-12T00:26:24.831Z,11.30
2023-03-12T00:28:54.324Z,13.10
2023-03-12T00:31:28.252Z,13.80
2023-03-12T00:33:57.892Z,11.00
2023-03-12T00:36:29.978Z,10.90
2023-03-12T00:39:01.219Z,9.90
2023-03-12T00:41:30.680Z,11.30
2023-03-12T00:43:59.602Z,9.40
2023-03-12T00:46:28.796Z,6.80
2023-03-12T00:48:58.205Z,11.90
2023-03-12T00:51:27.361Z,9.80
2023-03-12T00:53:56.848Z,13.50
2023-03-12T00:56:27.377Z,9.60
2023-03-12T00:58:57.132Z,10.80
2023-03-12T03:02:33.973Z,3.40
2023-03-12T03:05:03.527Z,3.80
2023-03-12T03:07:32.808Z,3.40
2023-03-12T03:10:05.599Z,3.60
2023-03-12T03:12:36.950Z,4.40
2023-03-12T03:15:07.191Z,3.40
2023-03-12T03:17:36.442Z,4.10
2023-03-12T03:20:11.826Z,4.50
2023-03-12T03:22:41.311Z,5.10
2023-03-12T03:25:11.767Z,4.70
2023-03-12T03:27:41.109Z,6.60
2023-03-12T03:30:12.741Z,4.50
2023-03-12T03:32:44.727Z,2.50
2023-03-12T03:35:14.479Z,5.20
2023-03-12T03:37:44.222Z,3.90
2023-03-12T03:40:16.448Z,2.90
2023-03-12T03:42:45.315Z,3.40
2023-03-12T03:45:14.930Z,4.10
2023-03-12T03:47:44.971Z,3.10
2023-03-12T03:50:14.596Z,3.10
2023-03-12T03:52:43.968Z,5.20
2023-03-12T03:55:13.384Z,4.60
2023-03-12T03:57:42.949Z,2.60
2023-03-12T04:00:14.252Z,4.70
2023-03-12T04:02:45.194Z,4.00
2023-03-12T04:05:16.885Z,3.60
2023-03-12T04:07:46.313Z,3.50
2023-03-12T04:10:16.222Z,5.40
2023-03-12T04:12:45.319Z,3.80
2023-03-12T04:15:14.581Z,2.80
2023-03-12T04:17:44.013Z,3.60
2023-03-12T04:20:13.099Z,2.70
2023-03-12T04:22:44.195Z,3.10
2023-03-12T04:25:13.781Z,4.20
2023-03-12T04:27:43.211Z,3.10
2023-03-12T04:30:13.403Z,3.30
2023-03-12T04:32:42.669Z,5.50
2023-03-12T04:35:12.070Z,5.70
2023-03-12T04:37:41.400Z,3.30
2023-03-12T04:40:11.925Z,3.50
2023-03-12T04:42:41.280Z,3.60
2023-03-12T04:45:12.627Z,4.20
2023-03-12T04:47:45.153Z,4.20
2023-03-12T04:50:15.815Z,2.30
2023-03-12T04:52:44.997Z,2.00
2023-03-12T04:55:14.559Z,3.50
2023-03-12T04:57:43.380Z,4.00
2023-03-12T05:00:13.486Z,4.30
2023-03-12T05:02:42.786Z,4.90
2023-03-12T05:05:11.915Z,12.50
2023-03-12T05:07:41.496Z,8.20
2023-03-12T05:10:11.202Z,7.80
2023-03-12T05:12:40.183Z,4.60
2023-03-12T05:15:09.791Z,4.70
2023-03-12T05:17:38.187Z,5.20
2023-03-12T05:20:07.411Z,8.10
2023-03-12T05:22:36.252Z,8.80
2023-03-12T05:25:06.317Z,8.30
2023-03-12T05:27:36.541Z,3.90
2023-03-12T05:30:07.576Z,3.80
2023-03-12T05:32:38.432Z,4.00
2023-03-12T05:35:07.685Z,11.20
2023-03-12T05:37:36.382Z,6.50
2023-03-12T05:40:05.701Z,8.40
2023-03-12T05:42:34.436Z,11.50
2023-03-12T05:45:07.578Z,12.00
2023-03-12T05:47:37.955Z,28.90
2023-03-12T05:50:07.611Z,24.90
2023-03-12T05:52:38.722Z,20.20
2023-03-12T05:55:08.846Z,10.70
2023-03-12T05:57:38.070Z,13.60
2023-03-12T06:00:08.540Z,13.10
2023-03-12T06:02:46.212Z,9.00
2023-03-12T06:05:16.548Z,11.20
2023-03-12T06:07:45.968Z,14.70
2023-03-12T06:10:15.188Z,11.70
2023-03-12T06:12:44.583Z,11.70
2023-03-12T06:15:13.557Z,7.20
2023-03-12T06:17:43.482Z,12.20
2023-03-12T06:20:14.187Z,7.60
2023-03-12T06:22:42.943Z,8.20
2023-03-12T06:25:12.233Z,8.00
2023-03-12T06:27:43.716Z,8.30
2023-03-12T06:30:13.654Z,8.70
2023-03-12T06:32:43.157Z,6.50
2023-03-12T06:35:12.369Z,22.20
2023-03-12T06:37:41.662Z,13.00
2023-03-12T06:40:12.203Z,16.40
2023-03-12T06:42:41.570Z,14.00
2023-03-12T06:45:11.204Z,17.30
2023-03-12T06:47:40.560Z,13.40
2023-03-12T06:50:10.043Z,14.80
2023-03-12T06:52:40.876Z,9.10
2023-03-12T06:55:11.009Z,7.30
2023-03-12T06:57:39.433Z,7.50
2023-03-12T07:00:09.743Z,5.30
2023-03-12T07:02:39.146Z,8.80
2023-03-12T07:05:09.090Z,10.70
2023-03-12T07:07:39.328Z,9.90
2023-03-12T07:10:11.075Z,13.00
2023-03-12T07:12:40.672Z,9.40
2023-03-12T07:15:10.862Z,5.00
2023-03-12T07:17:40.017Z,7.80
2023-03-12T07:20:10.386Z,7.90
2023-03-12T07:22:39.811Z,9.80
2023-03-12T07:25:10.259Z,10.20
2023-03-12T07:27:39.386Z,6.60
2023-03-12T07:30:09.431Z,9.20
2023-03-12T07:32:37.903Z,4.40
2023-03-12T07:35:07.573Z,10.30
2023-03-12T07:37:36.758Z,6.60
2023-03-12T07:40:08.125Z,5.30
2023-03-12T07:42:36.769Z,4.30
2023-03-12T07:45:05.919Z,14.10
2023-03-12T07:47:34.533Z,11.90
2023-03-12T07:50:04.364Z,6.10
2023-03-12T07:52:33.173Z,5.70
2023-03-12T07:55:02.014Z,10.00
2023-03-12T07:57:31.334Z,8.10
2023-03-12T08:00:00.776Z,9.50
2023-03-12T08:02:29.520Z,10.20
2023-03-12T08:04:58.672Z,28.20
2023-03-12T08:07:32.553Z,13.30
2023-03-12T08:10:03.240Z,7.80
2023-03-12T08:12:32.504Z,9.90
2023-03-12T08:15:01.052Z,8.90
2023-03-12T08:17:29.401Z,11.80
2023-03-12T08:19:57.814Z,5.10
2023-03-12T08:22:26.398Z,6.30
2023-03-12T08:24:55.069Z,6.20
2023-03-12T08:27:23.637Z,4.90
2023-03-12T08:29:51.986Z,11.60
2023-03-12T08:32:20.275Z,9.30
2023-03-12T08:34:49.242Z,7.40
2023-03-12T08:37:18.500Z,16.00
2023-03-12T08:39:47.773Z,27.20
2023-03-12T08:42:16.841Z,5.50
2023-03-12T08:44:46.315Z,19.80
2023-03-12T08:47:15.808Z,9.30
2023-03-12T08:49:44.998Z,8.20
2023-03-12T08:52:14.613Z,5.80
2023-03-12T08:54:43.549Z,5.50
2023-03-12T08:57:12.843Z,14.70
2023-03-12T08:59:42.378Z,17.90
2023-03-12T09:02:14.906Z,13.20
2023-03-12T09:04:47.997Z,6.70
2023-03-12T09:07:22.775Z,10.30
2023-03-12T09:09:52.145Z,8.10
2023-03-12T09:12:21.488Z,5.20
2023-03-12T09:15:02.897Z,10.70
2023-03-12T09:17:33.409Z,9.10
2023-03-12T09:20:02.298Z,7.40
2023-03-12T09:22:31.753Z,6.30
2023-03-12T09:25:00.791Z,5.90
2023-03-12T09:27:30.381Z,6.30
2023-03-12T09:30:01.139Z,8.30
2023-03-12T09:32:30.909Z,11.70
2023-03-12T09:35:00.303Z,33.20
2023-03-12T09:37:30.156Z,12.40
2023-03-12T09:40:00.419Z,13.20
2023-03-12T09:42:40.184Z,7.30
2023-03-12T09:45:22.530Z,6.50
2023-03-12T09:47:54.730Z,14.00
2023-03-12T09:50:41.752Z,7.60
2023-03-12T09:53:42.061Z,11.10
2023-03-12T09:56:15.313Z,4.40
2023-03-12T09:58:48.922Z,7.80
2023-03-12T10:01:42.769Z,5.90
2023-03-12T10:04:32.097Z,6.40
2023-03-12T10:07:04.097Z,5.10
2023-03-12T10:09:58.383Z,5.30
2023-03-12T10:12:33.009Z,10.10
2023-03-12T10:15:14.265Z,21.40
2023-03-12T10:17:46.679Z,13.60
2023-03-12T10:20:54.534Z,1.80
2023-03-12T10:23:47.881Z,17.30
2023-03-12T10:26:24.352Z,9.20
2023-03-12T10:29:12.266Z,6.00
2023-03-12T10:32:11.566Z,7.60
2023-03-12T10:34:48.766Z,7.20
2023-03-12T10:37:47.390Z,10.30
2023-03-12T10:40:20.133Z,7.20
2023-03-12T10:42:49.346Z,8.90
2023-03-12T10:45:43.060Z,6.30
2023-03-12T10:48:20.757Z,4.40
2023-03-12T10:51:12.191Z,7.50
2023-03-12T10:53:45.081Z,9.60
2023-03-12T10:56:21.191Z,8.80
2023-03-12T10:58:53.155Z,4.50
2023-03-12T11:01:24.230Z,6.90
2023-03-12T11:04:10.015Z,9.40
2023-03-12T11:06:39.146Z,33.50
2023-03-12T11:09:20.944Z,22.00
2023-03-12T11:11:51.503Z,9.90
2023-03-12T11:14:27.844Z,11.70
2023-03-12T11:16:58.220Z,12.20
2023-03-12T11:19:29.697Z,8.40
2023-03-12T11:22:03.806Z,101.90
2023-03-12T11:24:33.110Z,56.90
2023-03-12T11:27:17.971Z,51.30
2023-03-12T11:29:51.294Z,25.70
2023-03-12T11:32:38.362Z,12.20
2023-03-12T11:35:12.549Z,8.10
2023-03-12T11:38:02.209Z,7.00
2023-03-12T11:40:40.818Z,11.20
2023-03-12T11:43:46.451Z,8.90
2023-03-12T11:46:28.326Z,21.70
2023-03-12T11:49:06.739Z,11.90
2023-03-12T11:51:45.547Z,7.00
2023-03-12T11:54:26.804Z,7.40
2023-03-12T11:57:25.094Z,6.20
2023-03-12T12:00:18.007Z,8.50
2023-03-12T12:03:16.204Z,4.00
2023-03-12T12:06:00.762Z,7.00
2023-03-12T12:08:45.613Z,20.10
2023-03-12T12:11:45.918Z,11.00
2023-03-12T12:14:44.215Z,6.80
2023-03-12T12:17:19.517Z,4.30
2023-03-12T12:20:11.201Z,6.10
2023-03-12T12:23:29.257Z,6.10
2023-03-12T12:26:09.780Z,9.40
2023-03-12T12:29:00.659Z,6.50
2023-03-12T12:31:50.773Z,6.30
2023-03-12T12:34:45.901Z,11.50
2023-03-12T12:37:31.367Z,10.60
2023-03-12T12:40:19.418Z,12.80
2023-03-12T12:43:05.170Z,14.20
2023-03-12T12:45:36.821Z,6.80
2023-03-12T12:48:24.172Z,5.30
2023-03-12T12:50:56.300Z,6.20
2023-03-12T12:54:00.666Z,8.30
2023-03-12T12:57:01.649Z,4.90
2023-03-12T12:59:38.223Z,4.90
2023-03-12T13:02:19.962Z,6.30
2023-03-12T13:04:49.707Z,5.60
2023-03-12T13:07:22.264Z,22.80
2023-03-12T13:09:54.270Z,6.10
2023-03-12T13:12:26.577Z,6.70
2023-03-12T13:14:58.112Z,8.40
2023-03-12T13:17:36.500Z,9.40
2023-03-12T13:20:11.600Z,26.40
2023-03-12T13:23:12.198Z,16.40
2023-03-12T13:25:49.775Z,21.30
2023-03-12T13:28:36.928Z,33.40
2023-03-12T13:31:24.828Z,16.30
2023-03-12T13:34:20.383Z,18.40
2023-03-12T13:36:53.776Z,9.50
2023-03-12T13:39:36.758Z,16.90
2023-03-12T13:42:24.238Z,9.00
2023-03-12T13:44:54.454Z,12.90
2023-03-12T13:47:32.821Z,11.50
2023-03-12T13:50:16.035Z,11.10
2023-03-12T13:53:07.160Z,12.20
2023-03-12T13:55:40.244Z,9.30
2023-03-12T13:58:21.654Z,8.90
2023-03-12T14:01:01.469Z,18.40
2023-03-12T14:03:41.210Z,19.70
2023-03-12T14:06:13.914Z,24.30
2023-03-12T14:09:25.049Z,17.20
2023-03-12T14:11:57.677Z,20.20
2023-03-12T14:14:33.268Z,18.20
2023-03-12T14:17:05.229Z,15.40
2023-03-12T14:19:37.204Z,23.40
2023-03-12T14:22:08.782Z,9.10
2023-03-12T14:25:02.500Z,16.90
2023-03-12T14:27:34.255Z,22.20
2023-03-12T14:30:25.929Z,23.30
2023-03-12T14:33:01.455Z,9.70
2023-03-12T14:35:38.023Z,6.60
2023-03-12T14:38:35.046Z,6.20
2023-03-12T14:41:16.207Z,17.10
2023-03-12T14:43:46.666Z,19.50
2023-03-12T14:46:23.733Z,17.80
2023-03-12T14:48:57.882Z,13.20
2023-03-12T14:51:32.171Z,19.80
2023-03-12T14:54:04.261Z,19.50
2023-03-12T14:56:36.561Z,13.50
2023-03-12T14:59:21.655Z,9.90
2023-03-12T15:01:51.370Z,9.40
2023-03-12T15:04:24.090Z,17.10
2023-03-12T15:07:04.738Z,30.50
2023-03-12T15:09:37.068Z,31.20
2023-03-12T15:12:09.460Z,20.90
2023-03-12T15:14:43.539Z,9.60
2023-03-12T15:17:19.757Z,8.60
2023-03-12T15:19:50.915Z,10.00
2023-03-12T15:22:24.899Z,43.80
2023-03-12T15:24:55.059Z,8.00
2023-03-12T15:27:31.171Z,10.10
2023-03-12T15:30:02.137Z,8.80
2023-03-12T15:32:32.428Z,19.10
2023-03-12T15:35:14.756Z,13.60
2023-03-12T15:37:53.973Z,14.60
2023-03-12T15:40:26.623Z,24.00
2023-03-12T15:43:03.889Z,15.50
2023-03-12T15:45:39.443Z,13.00
2023-03-12T15:48:29.859Z,17.90
2023-03-12T15:51:00.150Z,20.70
2023-03-12T15:53:34.431Z,16.70
2023-03-12T15:56:24.450Z,19.90
2023-03-12T15:59:06.163Z,18.40
2023-03-12T16:01:54.143Z,14.50
2023-03-12T16:04:24.954Z,18.50
2023-03-12T16:06:55.286Z,38.20
2023-03-12T16:09:30.823Z,31.30
2023-03-12T16:12:00.152Z,96.30
2023-03-12T16:14:33.343Z,37.80
2023-03-12T16:17:03.371Z,39.60
2023-03-12T16:19:36.523Z,34.40
2023-03-12T16:22:06.250Z,39.00
2023-03-12T16:24:35.760Z,49.30
2023-03-12T16:27:08.203Z,56.60
2023-03-12T16:29:39.539Z,60.90
2023-03-12T16:32:14.454Z,68.30
2023-03-12T16:34:45.666Z,35.00
2023-03-12T16:37:15.132Z,25.90
2023-03-12T16:39:46.618Z,35.40
2023-03-12T16:42:18.446Z,55.10
2023-03-12T16:44:47.999Z,35.40
2023-03-12T16:47:17.477Z,50.10
2023-03-12T16:49:46.048Z,79.50
2023-03-12T16:52:20.925Z,112.50
2023-03-12T16:54:50.573Z,115.20
2023-03-12T16:57:30.317Z,77.70
2023-03-12T17:00:01.422Z,81.90
2023-03-12T17:02:30.163Z,62.70
2023-03-12T17:04:58.868Z,65.00
2023-03-12T17:07:27.543Z,86.20
2023-03-12T17:09:56.415Z,78.50
2023-03-12T17:12:33.948Z,72.40
2023-03-12T17:15:05.561Z,88.80
2023-03-12T17:17:33.796Z,98.00
2023-03-12T17:20:02.171Z,111.00
2023-03-12T17:22:30.451Z,117.50
2023-03-12T17:24:58.865Z,113.40
2023-03-12T17:27:27.172Z,114.20
2023-03-12T17:29:55.698Z,103.90
2023-03-12T17:32:24.306Z,104.90
2023-03-12T17:34:57.200Z,116.80
2023-03-12T17:37:25.864Z,127.80
2023-03-12T17:39:54.346Z,158.10
2023-03-12T17:42:22.719Z,176.20
2023-03-12T17:44:52.589Z,204.60
2023-03-12T17:47:24.632Z,209.00
2023-03-12T17:49:53.195Z,199.20
2023-03-12T17:52:21.632Z,220.30
2023-03-12T17:54:50.060Z,176.00
2023-03-12T17:57:18.644Z,148.20
2023-03-12T17:59:47.736Z,135.90
2023-03-12T18:02:16.468Z,130.20
2023-03-12T18:04:45.214Z,160.00
2023-03-12T18:07:13.724Z,337.00
2023-03-12T18:09:42.379Z,471.90
2023-03-12T18:12:13.227Z,438.00
2023-03-12T18:14:41.643Z,362.10
2023-03-12T18:17:10.134Z,232.60
2023-03-12T18:19:38.437Z,175.90
2023-03-12T18:22:07.414Z,149.20
2023-03-12T18:24:36.566Z,135.70
2023-03-12T18:27:05.008Z,119.00
2023-03-12T18:29:35.728Z,122.00
2023-03-12T18:32:04.694Z,188.70
2023-03-12T18:34:33.861Z,174.00
2023-03-12T18:37:02.436Z,156.60
2023-03-12T18:39:31.129Z,145.50
2023-03-12T18:41:59.724Z,157.10
2023-03-12T18:44:28.194Z,174.90
2023-03-12T18:46:56.649Z,165.60
2023-03-12T18:49:26.211Z,151.30
2023-03-12T18:51:56.215Z,146.70
2023-03-12T18:54:24.986Z,155.80
2023-03-12T18:56:53.410Z,186.40
2023-03-12T18:59:21.958Z,187.70
2023-03-12T19:01:50.312Z,186.40
2023-03-12T19:04:19.914Z,235.40
2023-03-12T19:06:51.582Z,190.90
2023-03-12T19:09:21.183Z,139.90
2023-03-12T19:11:50.537Z,147.10
2023-03-12T19:14:19.228Z,153.70
2023-03-12T19:16:47.544Z,120.00
2023-03-12T19:19:17.252Z,95.30
2023-03-12T19:21:45.722Z,92.10
2023-03-12T19:24:14.471Z,93.70
2023-03-12T19:26:42.815Z,116.90
2023-03-12T19:29:11.155Z,136.00
2023-03-12T19:31:39.475Z,136.10
2023-03-12T19:34:07.909Z,145.10
2023-03-12T19:36:36.154Z,184.50
2023-03-12T19:39:11.962Z,182.00
2023-03-12T19:41:48.181Z,175.20
2023-03-12T19:44:16.662Z,173.90
2023-03-12T19:46:47.338Z,110.30
2023-03-12T19:49:18.005Z,105.20
2023-03-12T19:51:46.288Z,87.70
2023-03-12T19:54:14.975Z,103.90
2023-03-12T19:56:43.378Z,94.40
2023-03-12T19:59:11.750Z,90.70
2023-03-12T20:01:43.080Z,79.30
2023-03-12T20:04:12.775Z,82.90
2023-03-12T20:06:41.117Z,86.10
2023-03-12T20:09:09.407Z,97.10
2023-03-12T20:11:38.753Z,85.00
2023-03-12T20:14:07.462Z,82.00
2023-03-12T20:16:36.434Z,91.80
2023-03-12T20:19:04.896Z,73.50
2023-03-12T20:21:33.335Z,107.60
2023-03-12T20:24:02.531Z,129.10
2023-03-12T20:26:31.454Z,86.30
2023-03-12T20:29:02.833Z,75.90
2023-03-12T20:31:31.430Z,66.00
2023-03-12T20:33:59.986Z,55.80
2023-03-12T20:36:28.409Z,50.90
2023-03-12T20:38:56.688Z,51.70
2023-03-12T20:41:25.147Z,68.60
2023-03-12T20:43:57.042Z,59.00
2023-03-12T20:46:25.647Z,46.40
2023-03-12T20:48:56.240Z,34.60
2023-03-12T20:51:25.196Z,39.40
2023-03-12T20:53:53.619Z,39.30
2023-03-12T20:56:22.026Z,46.60
2023-03-12T20:58:50.748Z,50.70
2023-03-12T21:01:19.213Z,48.80
2023-03-12T21:03:47.432Z,47.60
2023-03-12T21:06:15.906Z,45.80
2023-03-12T21:08:44.991Z,48.10
2023-03-12T21:11:13.305Z,40.70
2023-03-12T21:13:41.894Z,47.50
2023-03-12T21:16:12.886Z,72.80
2023-03-12T21:18:41.651Z,74.30
2023-03-12T21:21:10.258Z,86.70
2023-03-12T21:23:38.994Z,51.20
2023-03-12T21:26:09.606Z,66.50
2023-03-12T21:28:38.555Z,88.20
2023-03-12T21:31:13.462Z,68.40
2023-03-12T21:33:42.325Z,95.10
2023-03-12T21:36:13.363Z,96.60
2023-03-12T21:38:45.384Z,107.60
2023-03-12T21:41:16.501Z,106.10
2023-03-12T21:43:46.482Z,139.30
2023-03-12T21:46:20.826Z,111.10
2023-03-12T21:48:49.211Z,93.20
2023-03-12T21:51:18.512Z,89.90
2023-03-12T21:53:47.746Z,71.70
2023-03-12T21:56:16.790Z,75.00
2023-03-12T21:58:45.798Z,76.50
2023-03-12T22:01:16.842Z,64.70
2023-03-12T22:03:47.205Z,53.70
2023-03-12T22:06:17.265Z,79.90
2023-03-12T22:08:49.879Z,122.80
2023-03-12T22:11:18.693Z,133.80
2023-03-12T22:13:48.080Z,66.30
2023-03-12T22:16:17.393Z,89.00
2023-03-12T22:18:47.693Z,74.40
2023-03-12T22:21:22.324Z,51.80
2023-03-12T22:23:57.917Z,128.10
2023-03-12T22:26:27.170Z,174.00
2023-03-12T22:28:58.119Z,71.90
2023-03-12T22:31:29.036Z,49.40
2023-03-12T22:33:58.282Z,79.60
2023-03-12T22:36:28.326Z,34.00
2023-03-12T22:38:58.293Z,106.40
2023-03-12T22:41:30.400Z,61.30
2023-03-12T22:44:05.542Z,69.00
2023-03-12T22:46:34.821Z,67.10
2023-03-12T22:49:05.746Z,68.60
2023-03-12T22:51:34.247Z,56.70
2023-03-12T22:54:03.434Z,47.00
2023-03-12T22:56:32.384Z,35.60
2023-03-12T22:59:01.298Z,48.90
2023-03-12T23:01:30.459Z,54.00
2023-03-12T23:04:00.976Z,56.10
2023-03-12T23:06:30.345Z,66.40
2023-03-12T23:08:59.931Z,46.90
2023-03-12T23:11:30.254Z,40.80
2023-03-12T23:13:59.496Z,49.40
2023-03-12T23:16:28.755Z,54.60
2023-03-12T23:18:59.190Z,59.40
2023-03-12T23:21:28.628Z,89.10
2023-03-12T23:23:59.822Z,107.00
2023-03-12T23:26:29.405Z,73.40
2023-03-12T23:29:00.076Z,71.60
2023-03-12T23:31:30.365Z,79.40
2023-03-12T23:33:59.930Z,91.50
2023-03-12T23:36:28.502Z,90.10
2023-03-12T23:38:57.941Z,76.50
2023-03-12T23:41:31.656Z,49.40
2023-03-12T23:46:30.850Z,53.40
2023-03-12T23:49:00.181Z,64.80
2023-03-12T23:51:31.364Z,54.20
2023-03-12T23:54:05.738Z,58.70
2023-03-12T23:56:38.119Z,69.20
2023-03-12T23:59:09.490Z,68.00
